Tikaboo Peak, Nevada Weather observations

Data are for 10 minute period ending at time listed.
 Day   Time   Solar   Ave.   Ave.  Ave.  Vector  Max.   Baro.   Total    
  of    of     Rad.   Air    Rel.  Wind   Wind   Wind  Press.  Precip.   
Year   Day            Temp.  Hum.  Speed  Dir.   Gust                    
2021   (PST)  Kw/m2    F      %     mph   deg.    mph    mb.     in.     
-------------------------------------------------------------------------
  54   15:30   0.26   44.8    18    6.9   355    17.6   762.5    0.00 
  54   15:40   0.25   45.9    16    5.7   341    17.4   762.5    0.00 
  54   15:50   0.16   44.5    15    9.0   354    19.6   762.5    0.00 
  54   16:00   0.16   43.1    15    9.4    11    19.6   762.3    0.00 
  54   16:10   0.14   42.6    15   13.8    13    22.4   762.3    0.00 
  54   16:20   0.14   42.2    16   13.7     9    23.8   762.3    0.00 
  54   16:30   0.11   42.1    15   14.0     1    22.6   762.2    0.00 
  54   16:40   0.11   41.9    13   16.4   360    26.3   762.2    0.00 
  54   16:50   0.08   41.8    12   13.5   352    20.6   762.2    0.00 
  54   17:00   0.06   41.5    11   14.7   355    22.9   762.1    0.00 
  54   17:10   0.04   41.1    11   17.6     5    24.3   762.1    0.00 
  54   17:20   0.03   40.7    11   17.1   360    24.0   762.1    0.00 
  54   17:30   0.02   40.4    13   15.5     0    23.0   762.1    0.00 
  54   17:40   0.01   39.8    15   14.4   353    20.9   762.1    0.00 
  54   17:50   0.00   39.5    15   17.2   359    23.3   762.1    0.00 
  54   18:00   0.00   39.3    16   15.6   355    22.6   762.0    0.00 
  54   18:10   0.00   38.8    18   12.5   342    19.5   762.3    0.00 
  54   18:20   0.00   38.6    19   13.1   352    17.8   762.3    0.00 
  54   18:30   0.00   38.1    20   13.7   337    20.0   762.3    0.00 
  54   18:40   0.00   38.0    18   10.8   334    18.0   762.3    0.00 
  54   18:50   0.00   37.7    16   11.0   326    19.8   762.3    0.00 
  54   19:00   0.00   37.4    14   13.3   323    20.9   762.2    0.00 
  54   19:10   0.00   37.6    14   14.0   327    21.5   762.2    0.00 
  54   19:20   0.00   37.5    14   15.2   331    22.2   762.1    0.00 
  54   19:30   0.00   37.4    14   14.4   337    19.5   762.1    0.00 
  54   19:40   0.00   37.5    13   15.5   352    20.8   762.0    0.00 
  54   19:50   0.00   37.7    13   16.1   354    21.4   762.0    0.00 
  54   20:00   0.00   37.6    13   20.5   360    25.3   762.0    0.00 
  54   20:10   0.00   37.9    13   21.1   360    26.9   761.9    0.00 
  54   20:20   0.00   37.8    13   18.5   353    26.5   761.9    0.00 
  54   20:30   0.00   37.6    15   18.8   337    26.1   761.9    0.00 
  54   20:40   0.00   37.5    15   17.6   336    23.7   762.0    0.00 
  54   20:50   0.00   37.5    15   17.6   352    23.4   762.1    0.00 
  54   21:00   0.00   37.3    16   17.7   348    22.0   762.1    0.00 
  54   21:10   0.00   37.1    17   17.0   337    22.5   762.1    0.00 
  54   21:20   0.00   37.2    17   15.2   340    20.4   762.2    0.00 
  54   21:30   0.00   37.2    15   15.1   358    17.8   762.2    0.00 
  54   21:40   0.00   36.9    17   15.1     5    16.8   762.2    0.00 
  54   21:50   0.00   36.4    18   14.9   356    18.3   762.2    0.00 
  54   22:00   0.00   35.9    18   14.9   346    17.6   762.2    0.00 
  54   22:10   0.00   35.8    18   14.9   355    17.8   762.2    0.00 
  54   22:20   0.00   35.9    18   14.7   359    16.2   762.1    0.00 
  54   22:30   0.00   36.0    20   17.0   349    19.8   761.9    0.00 
  54   22:40   0.00   35.8    21   17.2   339    19.8   761.8    0.00 
  54   22:50   0.00   35.6    22   16.3   338    19.5   761.8    0.00 
  54   23:00   0.00   35.0    23    9.5   324    17.4   761.8    0.00 
  54   23:10   0.00   34.7    23   11.0   327    16.1   761.8    0.00 
  54   23:20   0.00   34.5    24   12.3   329    17.0   761.6    0.00 
  54   23:30   0.00   34.3    25   12.8   332    16.7   761.5    0.00 
  54   23:40   0.00   34.3    25   11.0   330    16.3   761.4    0.00 
  54   23:50   0.00   33.6    26    7.3   327    13.8   761.4    0.00 
  55    0:00   0.00   33.5    26    6.3   324    12.7   761.5    0.00 
  55    0:10   0.00   34.1    24    6.0   323    12.7   761.4    0.00 
  55    0:20   0.00   34.2    25    3.4   310     8.9   761.4    0.00 
  55    0:30   0.00   34.1    25    3.9   321     8.8   761.4    0.00 
  55    0:40   0.00   33.9    26    7.2   322    11.9   761.3    0.00 
  55    0:50   0.00   34.3    25    3.4   307    10.4   761.3    0.00 
  55    1:00   0.00   34.7    24    2.4   323     7.9   761.4    0.00 
  55    1:10   0.00   34.8    24    2.5   324     7.0   761.3    0.00 
  55    1:20   0.00   34.9    24    3.6   326     7.2   761.2    0.00 
  55    1:30   0.00   34.6    24    5.3   322     9.5   761.0    0.00 
  55    1:40   0.00   34.6    25    2.9   324     8.4   761.0    0.00 
  55    1:50   0.00   34.7    25    2.5   324    10.0   760.9    0.00 
  55    2:00   0.00   34.3    26    2.7   331     7.4   761.0    0.00 
  55    2:10   0.00   34.1    27    2.5   318    10.7   760.9    0.00 
  55    2:20   0.00   33.7    28    2.7   339     8.6   760.7    0.00 
  55    2:30   0.00   33.5    28    4.1   319     8.6   760.6    0.00 
  55    2:40   0.00   33.1    29    3.1   314     8.1   760.6    0.00 
  55    2:50   0.00   33.0    29    3.2   324     7.7   760.5    0.00 
  55    3:00   0.00   32.9    29    4.0   324    10.0   760.5    0.00 
  55    3:10   0.00   33.0    29    4.3   324     9.2   760.4    0.00 
  55    3:20   0.00   33.0    29    4.3   334    10.3   760.4    0.00 
  55    3:30   0.00   32.5    30    4.6   327    12.0   760.4    0.00 
  55    3:40   0.00   32.4    30    3.9   330     9.7   760.3    0.00 
  55    3:50   0.00   32.3    30    4.3   326    10.1   760.3    0.00 
  55    4:00   0.00   32.3    30    2.2   318     9.0   760.4    0.00 
  55    4:10   0.00   32.2    30    4.1   325    11.3   760.3    0.00 
  55    4:20   0.00   31.8    31    2.5   319     9.0   760.2    0.00 
  55    4:30   0.00   31.3    32    3.8   318    11.8   760.2    0.00 
  55    4:40   0.00   31.0    32    4.1   320    12.8   760.2    0.00 
  55    4:50   0.00   31.0    32    1.9   292     7.6   760.1    0.00 
  55    5:00   0.00   31.1    31    5.4   315    16.1   760.3    0.00 
  55    5:10   0.00   30.9    32    3.1   306     9.8   760.1    0.00 
  55    5:20   0.00   30.8    31    3.1   310    14.5   760.1    0.00 
  55    5:30   0.00   30.9    31    1.6   314     7.6   760.1    0.00 
  55    5:40   0.00   30.6    32    1.1   348     5.5   760.1    0.00 
  55    5:50   0.00   30.5    34    3.4   327    10.8   760.1    0.00 
  55    6:00   0.00   30.2    34    3.3   309     9.1   760.2    0.00 
  55    6:10   0.00   30.1    34    3.6   331    12.2   760.1    0.00 
  55    6:20   0.01   30.2    33    2.1   331     7.2   760.1    0.00 
  55    6:30   0.04   30.6    33    3.3   331    10.4   760.2    0.00 
  55    6:40   0.09   31.2    33    4.0   336    10.4   760.2    0.00 
  55    6:50   0.13   32.6    32    2.1   325     9.0   760.3    0.00 
  55    7:00   0.17   32.9    31    4.8   322     8.1   760.4    0.00 
  55    7:10   0.21   34.1    30    4.1   325     9.0   760.4    0.00 
  55    7:20   0.25   35.0    29    2.4   329     8.1   760.4    0.00 
  55    7:30   0.29   36.3    28    5.3   329    10.5   760.5    0.00 
  55    7:40   0.33   39.3    24    3.7   324     8.7   760.5    0.00 
  55    7:50   0.37   40.8    22    2.9   314     5.8   760.6    0.00 
  55    8:00   0.41   40.7    23    3.4   317     7.5   760.7    0.00 
  55    8:10   0.45   41.7    22    4.7   328    12.1   760.7    0.00 
  55    8:20   0.48   41.3    20    5.2   321    12.1   760.8    0.00 
  55    8:30   0.52   41.4    18    5.1   333     9.7   760.8    0.00 
  55    8:40   0.55   42.5    16    4.1   331     8.3   761.0    0.00 
  55    8:50   0.58   42.2    16    4.6   320     7.2   761.0    0.00 
  55    9:00   0.62   43.0    16    7.2   329    11.2   760.9    0.00 
  55    9:10   0.65   42.4    17    4.2   308     6.5   761.0    0.00 
  55    9:20   0.67   41.5    16    4.6   308     8.5   761.0    0.00 
  55    9:30   0.70   40.2    17    5.4   319     8.6   760.9    0.00 
  55    9:40   0.72   40.6    16    5.4   315     8.6   760.9    0.00 
  55    9:50   0.75   41.8    15    6.2   321    13.6   760.8    0.00 
  55   10:00   0.77   43.6    13    7.5   322    15.8   760.7    0.00 
  55   10:10   0.79   44.7    13    7.2   322    12.3   760.7    0.00 
  55   10:20   0.80   44.3    14    6.0   311    11.2   760.8    0.00 
  55   10:30   0.82   45.4    13    7.3   319    10.7   760.8    0.00 
  55   10:40   0.83   43.9    16    5.7   308    10.7   760.7    0.00 
  55   10:50   0.84   43.9    16    7.1   314    11.7   760.7    0.00 
  55   11:00   0.85   44.4    15    7.1   305    13.1   760.6    0.00 
  55   11:10   0.85   44.7    15    7.8   294    14.1   760.6    0.00 
  55   11:20   0.86   44.7    16    6.1   289    10.3   760.6    0.00 
  55   11:30   0.86   43.9    16    7.2   272    13.4   760.4    0.00 
  55   11:40   0.86   43.0    16    5.5   278    14.8   760.2    0.00 
  55   11:50   0.86   44.4    16    9.7   287    17.5   760.0    0.00 
  55   12:00   0.85   44.4    16    8.7   284    15.9   759.8    0.00 
  55   12:10   0.85   42.9    17    9.1   286    16.1   759.6    0.00 
  55   12:20   0.84   42.7    17    9.9   289    23.5   759.4    0.00 
  55   12:30   0.83   43.2    15   12.4   286    21.8   759.2    0.00 
  55   12:40   0.82   43.9    14   15.4   290    21.8   759.1    0.00 
  55   12:50   0.80   43.2    14    8.8   287    20.6   759.0    0.00 
  55   13:00   0.79   43.8    12   11.3   279    22.8   758.8    0.00 
  55   13:10   0.77   45.4    10    7.6   308    21.6   758.7    0.00 
  55   13:20   0.75   45.5    10    7.4   305    21.8   758.6    0.00 
  55   13:30   0.73   45.4     9    9.2   299    24.8   758.6    0.00 
  55   13:40   0.70   45.1     9    3.2   342    13.5   758.7    0.00 
  55   13:50   0.67   44.6    10    2.6   344    11.6   758.7    0.00 
  55   14:00   0.65   44.2    11    2.3     6    12.3   758.6    0.00 
  55   14:10   0.62   42.7    11    3.1   319    13.0   758.6    0.00 
  55   14:20   0.59   42.5    11    2.4    38    12.3   758.6    0.00 
  55   14:30   0.56   42.3    11    2.4   359    18.0   758.6    0.00 
  55   14:40   0.53   41.7    11    2.3   263    10.4   761.9    0.00 
  55   14:50   0.49   41.5    10    3.4   294    16.7   758.7    0.00 
  55   15:00   0.46   41.2     9    2.9   205    13.4   758.6    0.00 
  55   15:10   0.42   39.8     9    2.4    58    11.0   758.6    0.00 
  55   15:20   0.39   39.9     9    3.1   177    12.2   758.6    0.00 

Return to Tikaboo Peak graphs page.


Western Regional Climate Center,wrcc@dri.edu